Time;durP1;ratioP1;P1;durP2;ratioP2;P2;SDS_P1;SDS_P2;PMS_P1;PMS_P2;Temp;Humidity;BMP_temperature;BMP_pressure;BME280_temperature;BME280_humidity;BME280_pressure;Samples;Min_cycle;Max_cycle;Signal;HPM_P1;HPM_P2
2022/10/16 00:01:32;;;;;;;15.73;14.05;;;;;;;12.00;100.00;100685.63;4997908;28;20285;-47
2022/10/16 00:03:59;;;;;;;15.30;12.55;;;;;;;12.02;100.00;100691.81;4999155;28;20209;-48
2022/10/16 00:06:26;;;;;;;17.42;13.40;;;;;;;11.95;100.00;100705.50;4996871;28;20188;-48
2022/10/16 00:08:52;;;;;;;15.18;13.32;;;;;;;11.89;100.00;100703.09;4996055;28;20204;-48
2022/10/16 00:11:19;;;;;;;17.70;12.90;;;;;;;11.89;100.00;100700.41;4988381;28;20261;-49
2022/10/16 00:13:46;;;;;;;18.33;13.23;;;;;;;11.86;100.00;100715.78;4999531;28;20552;-47
2022/10/16 00:16:13;;;;;;;14.38;12.70;;;;;;;11.90;100.00;100712.06;4999221;28;20185;-49
2022/10/16 00:18:39;;;;;;;14.93;11.82;;;;;;;11.88;100.00;100719.31;4999349;28;20189;-46
2022/10/16 00:21:12;;;;;;;15.75;13.05;;;;;;;11.88;100.00;100708.56;4995676;28;20221;-48
2022/10/16 00:23:38;;;;;;;14.00;11.45;;;;;;;11.89;100.00;100711.16;4997092;28;20297;-48
2022/10/16 00:26:07;;;;;;;18.20;12.90;;;;;;;11.83;100.00;100716.81;5000038;28;20652;-48
2022/10/16 00:28:33;;;;;;;15.55;12.25;;;;;;;11.80;100.00;100716.06;4996809;28;20204;-48
2022/10/16 00:30:59;;;;;;;15.32;12.35;;;;;;;11.81;100.00;100717.81;4997257;28;20188;-47
2022/10/16 00:33:24;;;;;;;17.05;13.40;;;;;;;11.78;100.00;100715.25;4996477;28;20732;-48
2022/10/16 00:35:50;;;;;;;14.35;11.48;;;;;;;11.81;100.00;100712.44;4997841;28;20235;-48
2022/10/16 00:38:16;;;;;;;15.77;12.55;;;;;;;11.75;100.00;100711.75;5001310;28;20718;-47
2022/10/16 00:40:42;;;;;;;15.98;12.95;;;;;;;11.75;100.00;100718.94;4996864;28;20200;-46
2022/10/16 00:43:32;;;;;;;19.55;11.88;;;;;;;11.71;100.00;100710.16;4996843;28;20679;-49
2022/10/16 00:45:59;;;;;;;12.00;10.75;;;;;;;11.68;100.00;100720.16;4981511;28;20304;-48
2022/10/16 00:48:25;;;;;;;17.45;10.25;;;;;;;11.67;100.00;100721.09;4997469;28;20263;-49
2022/10/16 00:50:51;;;;;;;12.52;10.63;;;;;;;11.70;100.00;100720.97;4993052;28;20579;-51
2022/10/16 00:53:17;;;;;;;14.30;10.77;;;;;;;11.66;100.00;100719.38;4992403;28;20275;-47
2022/10/16 00:55:43;;;;;;;13.35;10.05;;;;;;;11.72;100.00;100719.09;4978157;28;20192;-47
2022/10/16 00:58:09;;;;;;;15.75;10.05;;;;;;;11.64;100.00;100727.47;4979460;28;20280;-49
2022/10/16 01:00:35;;;;;;;12.00;9.75;;;;;;;11.63;100.00;100722.16;4997821;28;20570;-48
2022/10/16 01:03:02;;;;;;;13.90;9.68;;;;;;;11.62;100.00;100725.81;4997873;28;20212;-47
2022/10/16 01:05:59;;;;;;;16.98;9.75;;;;;;;11.64;100.00;100735.53;4991132;28;20730;-50
2022/10/16 01:08:36;;;;;;;10.35;8.30;;;;;;;11.62;100.00;100728.50;4997568;28;20826;-50
2022/10/16 01:11:17;;;;;;;13.95;9.18;;;;;;;11.63;100.00;100724.84;4996179;28;20728;-48
2022/10/16 01:13:47;;;;;;;11.30;8.77;;;;;;;11.65;100.00;100739.94;4999110;28;20212;-49
2022/10/16 01:16:15;;;;;;;10.20;8.60;;;;;;;11.61;100.00;100743.72;4994303;28;20181;-47
2022/10/16 01:18:50;;;;;;;12.15;8.13;;;;;;;11.64;100.00;100740.91;4993927;28;20649;-44
2022/10/16 01:21:20;;;;;;;13.23;8.73;;;;;;;11.65;100.00;100739.94;4979907;28;20184;-47
2022/10/16 01:23:55;;;;;;;12.32;8.82;;;;;;;11.63;100.00;100740.94;4997412;28;20199;-46
2022/10/16 01:26:37;;;;;;;9.27;8.25;;;;;;;11.67;100.00;100732.69;4997033;28;20188;-46
2022/10/16 01:29:31;;;;;;;15.63;9.52;;;;;;;11.60;100.00;100739.28;4995839;28;20189;-46
2022/10/16 01:32:05;;;;;;;12.25;8.02;;;;;;;11.66;100.00;100736.34;4994493;28;20373;-46
2022/10/16 01:34:37;;;;;;;11.48;8.95;;;;;;;11.64;100.00;100745.41;4997289;28;20250;-45
2022/10/16 01:37:15;;;;;;;15.23;8.88;;;;;;;11.62;100.00;100740.09;4996792;28;20280;-46
2022/10/16 01:39:45;;;;;;;12.18;8.95;;;;;;;11.65;100.00;100741.75;4998120;28;20219;-46
2022/10/16 01:42:27;;;;;;;13.65;9.27;;;;;;;11.63;100.00;100744.53;4997571;28;20267;-46
2022/10/16 01:44:54;;;;;;;12.90;8.80;;;;;;;11.64;100.00;100740.03;4994517;28;20268;-46
2022/10/16 01:47:23;;;;;;;20.05;9.38;;;;;;;11.62;100.00;100734.72;5001402;28;20185;-44
2022/10/16 01:49:51;;;;;;;14.18;8.88;;;;;;;11.61;100.00;100726.72;4983273;28;20184;-46
2022/10/16 01:52:21;;;;;;;13.07;8.80;;;;;;;11.63;100.00;100724.84;4994429;28;20296;-45
2022/10/16 01:54:50;;;;;;;11.55;9.02;;;;;;;11.62;100.00;100732.03;4995603;28;20189;-51
2022/10/16 01:57:18;;;;;;;14.30;9.35;;;;;;;11.63;100.00;100733.78;4983291;28;20185;-45
2022/10/16 01:59:51;;;;;;;13.90;9.38;;;;;;;11.61;100.00;100726.72;4986137;28;20250;-48
2022/10/16 02:02:18;;;;;;;14.60;8.85;;;;;;;11.60;100.00;100730.38;4991827;28;20197;-46
2022/10/16 02:04:48;;;;;;;14.25;8.70;;;;;;;11.64;100.00;100727.47;4986040;28;20189;-46
2022/10/16 02:07:15;;;;;;;13.07;8.43;;;;;;;11.64;100.00;100729.28;5002388;28;20231;-45
2022/10/16 02:09:41;;;;;;;9.80;8.27;;;;;;;11.62;100.00;100728.50;4992553;28;20679;-45
2022/10/16 02:12:13;;;;;;;11.80;7.95;;;;;;;11.63;100.00;100731.13;4998164;28;20218;-45
2022/10/16 02:14:40;;;;;;;10.73;7.95;;;;;;;11.63;100.00;100741.84;5002688;28;20205;-50
2022/10/16 02:17:17;;;;;;;10.10;8.60;;;;;;;11.63;100.00;100730.22;4995891;28;20554;-47
2022/10/16 02:19:44;;;;;;;11.65;8.55;;;;;;;11.63;100.00;100724.84;4994237;28;20180;-45
2022/10/16 02:22:17;;;;;;;13.30;8.45;;;;;;;11.67;100.00;100732.69;4991453;28;20185;-46
2022/10/16 02:24:55;;;;;;;15.82;8.80;;;;;;;11.63;100.00;100730.22;4996230;28;20663;-45
2022/10/16 02:27:49;;;;;;;15.93;8.73;;;;;;;11.66;100.00;100727.41;4996966;28;20189;-45
2022/10/16 02:30:36;;;;;;;13.15;8.13;;;;;;;11.68;100.00;100729.09;4967566;28;20202;-44
2022/10/16 02:33:04;;;;;;;10.80;8.35;;;;;;;11.64;100.00;100722.09;5004640;28;20196;-46
2022/10/16 02:35:31;;;;;;;14.00;8.35;;;;;;;11.62;100.00;100720.44;4998862;28;20188;-47
2022/10/16 02:37:57;;;;;;;12.25;8.48;;;;;;;11.62;100.00;100725.81;4995490;28;20189;-45
2022/10/16 02:40:24;;;;;;;14.05;8.57;;;;;;;11.67;100.00;100719.28;5002008;28;20229;-44
2022/10/16 02:42:52;;;;;;;13.68;8.50;;;;;;;11.64;100.00;100729.28;5000965;28;20516;-45
2022/10/16 02:45:18;;;;;;;11.45;8.15;;;;;;;11.62;100.00;100731.16;4983586;28;20193;-46
2022/10/16 02:47:43;;;;;;;11.98;8.75;;;;;;;11.59;100.00;100737.56;4987853;28;20242;-45
2022/10/16 02:50:09;;;;;;;12.40;9.05;;;;;;;11.62;100.00;100744.59;4998736;28;20244;-45
2022/10/16 02:52:35;;;;;;;10.20;7.95;;;;;;;11.60;100.00;100725.88;4998020;28;20205;-48
2022/10/16 02:55:00;;;;;;;10.48;8.32;;;;;;;11.60;100.00;100738.41;5001111;28;20723;-45
2022/10/16 02:57:26;;;;;;;11.88;8.57;;;;;;;11.57;100.00;100727.78;4998240;28;20185;-46
2022/10/16 02:59:51;;;;;;;9.95;8.07;;;;;;;11.57;100.00;100730.47;4995389;28;20200;-47
2022/10/16 03:02:17;;;;;;;13.00;8.55;;;;;;;11.52;100.00;100728.91;5002180;28;21222;-46
2022/10/16 03:04:42;;;;;;;10.77;7.88;;;;;;;11.49;100.00;100723.66;4997751;28;20192;-45
2022/10/16 03:07:08;;;;;;;10.40;7.72;;;;;;;11.49;100.00;100734.38;5001666;28;20551;-44
2022/10/16 03:09:34;;;;;;;9.45;7.88;;;;;;;11.48;100.00;100738.00;4999877;28;20251;-47
2022/10/16 03:11:59;;;;;;;15.23;7.95;;;;;;;11.45;100.00;100738.13;5001103;28;20556;-50
2022/10/16 03:14:25;;;;;;;13.63;8.70;;;;;;;11.49;100.00;100730.84;4998584;28;20201;-49
2022/10/16 03:16:50;;;;;;;10.55;7.30;;;;;;;11.43;100.00;100729.28;4999013;28;20184;-47
2022/10/16 03:19:17;;;;;;;11.43;6.85;;;;;;;11.42;100.00;100732.91;4995162;28;20231;-46
2022/10/16 03:21:43;;;;;;;8.98;7.50;;;;;;;11.39;100.00;100730.38;4996614;28;20197;-47
2022/10/16 03:24:08;;;;;;;7.75;6.47;;;;;;;11.41;100.00;100732.97;5001014;28;20318;-46
2022/10/16 03:26:34;;;;;;;10.80;6.40;;;;;;;11.43;100.00;100725.72;5001113;28;20193;-47
2022/10/16 03:28:59;;;;;;;11.48;7.00;;;;;;;11.36;100.00;100727.81;4999203;28;20172;-46
2022/10/16 03:31:25;;;;;;;9.73;6.40;;;;;;;11.31;100.00;100733.38;5002538;28;20570;-46
2022/10/16 03:33:50;;;;;;;10.60;6.70;;;;;;;11.30;100.00;100711.97;5002657;28;20224;-46
2022/10/16 03:36:17;;;;;;;9.68;6.25;;;;;;;11.33;100.00;100723.44;4981744;28;20291;-45
2022/10/16 03:38:42;;;;;;;8.32;6.00;;;;;;;11.28;100.00;100733.53;5001736;28;20193;-50
2022/10/16 03:41:08;;;;;;;11.52;5.78;;;;;;;11.30;100.00;100730.75;4998111;28;20604;-46
2022/10/16 03:43:33;;;;;;;8.98;5.22;;;;;;;11.23;100.00;100735.50;5001201;28;20710;-45
2022/10/16 03:45:59;;;;;;;7.07;5.32;;;;;;;11.24;100.00;100736.38;5000012;28;20230;-49
2022/10/16 03:48:24;;;;;;;9.18;5.20;;;;;;;11.19;100.00;100747.28;5003559;28;20647;-45
2022/10/16 03:50:51;;;;;;;7.30;4.90;;;;;;;11.16;100.00;100749.25;4998655;28;20201;-45
2022/10/16 03:53:17;;;;;;;9.85;4.78;;;;;;;11.13;100.00;100739.53;4994328;28;20213;-45
2022/10/16 03:55:43;;;;;;;10.55;5.03;;;;;;;11.18;100.00;100734.84;5001761;28;20223;-48
2022/10/16 03:58:09;;;;;;;8.18;4.55;;;;;;;11.21;100.00;100745.41;5000268;28;20174;-45
2022/10/16 04:00:34;;;;;;;7.18;4.40;;;;;;;11.21;100.00;100744.56;4998367;28;20281;-46
2022/10/16 04:03:00;;;;;;;11.77;4.18;;;;;;;11.19;100.00;100754.47;5000068;28;20739;-45
2022/10/16 04:05:26;;;;;;;10.20;4.30;;;;;;;11.13;100.00;100752.94;4983740;28;20219;-46
2022/10/16 04:07:51;;;;;;;10.45;4.00;;;;;;;11.11;100.00;100739.59;4999835;28;20618;-49
2022/10/16 04:10:17;;;;;;;10.05;3.70;;;;;;;11.10;100.00;100756.59;5013248;28;20696;-45
2022/10/16 04:12:42;;;;;;;6.57;3.78;;;;;;;11.07;100.00;100759.41;5005254;28;20223;-46
2022/10/16 04:15:08;;;;;;;5.53;3.35;;;;;;;11.03;100.00;100755.09;4998329;28;20189;-48
2022/10/16 04:17:34;;;;;;;10.77;3.45;;;;;;;11.04;100.00;100753.28;4996243;28;20206;-51
2022/10/16 04:19:59;;;;;;;5.88;3.30;;;;;;;11.03;100.00;100767.66;4998106;28;20698;-47
2022/10/16 04:22:24;;;;;;;8.10;3.58;;;;;;;11.05;100.00;100755.91;5000550;28;20212;-46
2022/10/16 04:24:50;;;;;;;6.15;3.50;;;;;;;11.04;100.00;100759.56;4997964;28;20533;-51
2022/10/16 04:27:16;;;;;;;6.47;2.70;;;;;;;11.07;100.00;100763.91;4999625;28;20691;-45
2022/10/16 04:29:41;;;;;;;9.18;3.35;;;;;;;11.07;100.00;100759.41;5002675;28;20223;-46
2022/10/16 04:32:08;;;;;;;8.82;2.65;;;;;;;11.08;100.00;100761.16;5000320;28;20197;-48
2022/10/16 04:34:34;;;;;;;10.98;2.78;;;;;;;11.13;100.00;100769.88;4993222;28;20284;-46
2022/10/16 04:36:59;;;;;;;5.32;2.60;;;;;;;11.08;100.00;100776.38;4999578;28;20280;-46
2022/10/16 04:39:25;;;;;;;7.68;2.35;;;;;;;11.10;100.00;100761.97;4989597;28;20310;-46
2022/10/16 04:41:51;;;;;;;7.35;2.50;;;;;;;11.12;100.00;100767.25;5008963;28;20176;-47
2022/10/16 04:44:16;;;;;;;4.95;2.42;;;;;;;11.07;100.00;100761.22;4998887;28;20739;-45
2022/10/16 04:46:42;;;;;;;9.27;2.55;;;;;;;11.03;100.00;100768.50;4981951;28;20342;-46
2022/10/16 04:49:07;;;;;;;6.47;2.40;;;;;;;11.06;100.00;100765.72;4991689;28;20185;-49
2022/10/16 04:51:33;;;;;;;9.07;2.38;;;;;;;11.05;100.00;100768.47;4997336;28;20200;-49
2022/10/16 04:53:58;;;;;;;4.28;2.10;;;;;;;11.13;100.00;100766.34;4987137;28;20669;-48
2022/10/16 04:56:24;;;;;;;4.38;2.20;;;;;;;11.09;100.00;100773.63;4991639;28;20180;-47
2022/10/16 04:58:50;;;;;;;5.18;2.10;;;;;;;11.13;100.00;100777.06;4995441;28;20672;-49
2022/10/16 05:01:15;;;;;;;5.45;2.38;;;;;;;11.18;100.00;100772.38;4997270;28;20276;-45
2022/10/16 05:03:40;;;;;;;7.00;2.35;;;;;;;11.20;100.00;100785.72;5001975;28;20190;-46
2022/10/16 05:06:07;;;;;;;6.47;2.35;;;;;;;11.18;100.00;100783.09;4999446;28;20180;-46
2022/10/16 05:08:33;;;;;;;3.70;2.10;;;;;;;11.30;100.00;100787.06;4996987;28;20573;-45
2022/10/16 05:10:58;;;;;;;4.22;2.03;;;;;;;11.22;100.00;100790.09;4994074;28;20186;-46
2022/10/16 05:13:24;;;;;;;6.75;2.45;;;;;;;11.17;100.00;100783.16;4998109;28;20221;-49
2022/10/16 05:15:49;;;;;;;5.93;2.03;;;;;;;11.18;100.00;100796.50;4997864;28;20188;-46
2022/10/16 05:18:16;;;;;;;3.97;2.05;;;;;;;11.22;100.00;100784.72;4998043;28;20240;-46
2022/10/16 05:20:42;;;;;;;5.43;2.30;;;;;;;11.21;100.00;100803.56;4997110;28;20219;-46
2022/10/16 05:23:09;;;;;;;4.72;2.30;;;;;;;11.20;100.00;100791.97;4999967;28;20304;-45
2022/10/16 05:25:36;;;;;;;4.68;1.90;;;;;;;11.21;100.00;100793.69;5001789;28;20242;-46
2022/10/16 05:28:02;;;;;;;6.95;2.20;;;;;;;11.20;100.00;100793.78;5004070;28;20184;-47
2022/10/16 05:30:27;;;;;;;4.63;1.83;;;;;;;11.23;100.00;100789.13;4981630;28;20218;-46
2022/10/16 05:32:53;;;;;;;5.43;2.35;;;;;;;11.25;100.00;100791.75;4998210;28;20647;-47
2022/10/16 05:35:20;;;;;;;7.70;2.03;;;;;;;11.23;100.00;100799.88;5000494;28;20196;-49
2022/10/16 05:37:46;;;;;;;4.43;1.90;;;;;;;11.28;100.00;100803.25;4998926;28;20185;-48
2022/10/16 05:40:13;;;;;;;8.68;2.22;;;;;;;11.21;100.00;100809.78;4998343;28;20177;-47
2022/10/16 05:42:39;;;;;;;6.25;2.35;;;;;;;11.24;100.00;100811.47;5000105;28;20589;-46
2022/10/16 05:45:06;;;;;;;7.25;1.90;;;;;;;11.26;100.00;100823.00;4996985;28;20173;-45
2022/10/16 05:47:31;;;;;;;5.28;2.10;;;;;;;11.22;100.00;100822.28;4979397;28;20678;-52
2022/10/16 05:49:57;;;;;;;11.38;2.47;;;;;;;11.21;100.00;100819.66;4996791;28;20189;-45
2022/10/16 05:52:22;;;;;;;8.88;2.00;;;;;;;11.29;100.00;100820.22;4991344;28;20197;-47
2022/10/16 05:54:48;;;;;;;6.60;2.25;;;;;;;11.22;100.00;100829.44;4995002;28;20201;-47
2022/10/16 05:57:13;;;;;;;4.47;1.65;;;;;;;11.28;100.00;100826.50;4998396;28;20263;-45
2022/10/16 05:59:39;;;;;;;4.38;1.80;;;;;;;11.29;100.00;100833.63;4998444;28;20267;-46
2022/10/16 06:02:04;;;;;;;5.15;2.08;;;;;;;11.28;100.00;100827.38;4994569;28;20205;-47
2022/10/16 06:04:30;;;;;;;3.20;1.80;;;;;;;11.29;100.00;100830.94;5001932;28;20187;-45
2022/10/16 06:07:00;;;;;;;6.40;2.10;;;;;;;11.32;100.00;100833.47;4986711;28;20582;-44
2022/10/16 06:09:26;;;;;;;4.35;2.08;;;;;;;11.31;100.00;100826.38;4988115;28;20181;-43
2022/10/16 06:11:51;;;;;;;5.32;1.80;;;;;;;11.34;100.00;100836.97;5000379;28;20288;-44
2022/10/16 06:14:17;;;;;;;2.70;1.55;;;;;;;11.38;100.00;100838.59;4999772;28;20347;-44
2022/10/16 06:16:42;;;;;;;3.05;1.58;;;;;;;11.36;100.00;100837.78;4997626;28;20270;-48
2022/10/16 06:19:09;;;;;;;4.45;1.95;;;;;;;11.38;100.00;100827.88;4999252;28;20185;-42
2022/10/16 06:21:35;;;;;;;3.65;2.28;;;;;;;11.37;100.00;100827.91;5000967;28;20169;-44
2022/10/16 06:24:00;;;;;;;3.60;1.60;;;;;;;11.37;100.00;100826.13;4978384;28;20548;-46
2022/10/16 06:26:28;;;;;;;3.30;1.90;;;;;;;11.39;100.00;100837.69;5001079;28;20203;-45
2022/10/16 06:28:55;;;;;;;3.78;1.60;;;;;;;11.39;100.00;100832.31;4996707;28;20499;-43
2022/10/16 06:31:21;;;;;;;6.88;1.85;;;;;;;11.44;100.00;100830.31;5007698;28;20174;-43
2022/10/16 06:33:50;;;;;;;3.97;1.77;;;;;;;11.46;100.00;100832.94;4985339;28;20244;-43
2022/10/16 06:36:17;;;;;;;5.53;1.90;;;;;;;11.53;100.00;100829.91;4998168;28;20184;-45
2022/10/16 06:38:43;;;;;;;6.93;1.70;;;;;;;11.66;100.00;100832.09;4994838;28;20200;-43
2022/10/16 06:41:12;;;;;;;3.35;1.40;;;;;;;11.63;100.00;100842.94;5005413;28;20177;-46
2022/10/16 06:43:38;;;;;;;4.70;1.85;;;;;;;11.73;100.00;100838.91;5005690;28;20201;-46
2022/10/16 06:46:07;;;;;;;4.68;1.55;;;;;;;11.88;100.00;100849.03;5003271;28;20302;-45
2022/10/16 06:48:33;;;;;;;5.45;1.52;;;;;;;11.89;100.00;100847.22;4999738;28;20548;-49
2022/10/16 06:51:11;;;;;;;4.65;1.77;;;;;;;11.82;100.00;100848.41;4998251;28;20193;-45
2022/10/16 06:53:39;;;;;;;4.68;1.55;;;;;;;11.83;100.00;100848.34;4999694;28;20582;-46
2022/10/16 06:56:26;;;;;;;4.25;1.50;;;;;;;11.80;100.00;100852.94;4995767;28;20193;-44
2022/10/16 06:58:52;;;;;;;3.88;1.17;;;;;;;11.79;100.00;100854.78;4994244;28;20540;-44
2022/10/16 07:01:20;;;;;;;4.18;1.50;;;;;;;11.83;100.00;100869.81;4995822;28;20189;-50
2022/10/16 07:03:46;;;;;;;5.35;1.20;;;;;;;11.85;100.00;100864.34;4996259;28;20197;-44
2022/10/16 07:06:18;;;;;;;4.88;1.50;;;;;;;11.86;100.00;100877.72;4999648;28;20185;-43
2022/10/16 07:08:46;;;;;;;4.70;1.50;;;;;;;11.91;100.00;100870.38;4992682;28;20201;-44
2022/10/16 07:11:17;;;;;;;4.35;1.42;;;;;;;11.89;100.00;100872.25;4998784;28;20252;-45
2022/10/16 07:13:43;;;;;;;3.40;1.70;;;;;;;11.95;100.00;100865.75;4993997;28;20201;-43
2022/10/16 07:16:16;;;;;;;4.40;1.73;;;;;;;12.03;100.00;100871.66;5000231;28;20244;-48
2022/10/16 07:18:44;;;;;;;4.22;1.23;;;;;;;12.04;100.00;100876.09;4996707;28;20181;-47
2022/10/16 07:21:15;;;;;;;3.50;1.40;;;;;;;12.08;100.00;100880.38;5000466;28;20184;-47
2022/10/16 07:23:41;;;;;;;4.28;1.60;;;;;;;12.06;100.00;100890.31;4987343;28;20197;-48
2022/10/16 07:26:08;;;;;;;4.15;1.58;;;;;;;12.03;100.00;100890.47;4998841;28;20200;-45
2022/10/16 07:28:33;;;;;;;3.42;1.48;;;;;;;12.10;100.00;100891.06;4997150;28;20287;-46
2022/10/16 07:31:04;;;;;;;2.65;1.60;;;;;;;12.04;100.00;100896.69;5004022;28;20311;-49
2022/10/16 07:33:31;;;;;;;3.90;1.95;;;;;;;12.03;100.00;100903.03;5000676;28;20213;-46
2022/10/16 07:35:57;;;;;;;5.40;1.50;;;;;;;12.06;100.00;100906.44;5002199;28;20682;-48
2022/10/16 07:38:23;;;;;;;3.30;1.60;;;;;;;12.11;100.00;100901.75;4999590;28;20637;-47
2022/10/16 07:40:59;;;;;;;4.47;1.38;;;;;;;12.20;100.00;100895.09;4995916;28;20185;-48
2022/10/16 07:43:25;;;;;;;3.35;1.80;;;;;;;12.24;100.00;100891.31;4996341;28;20351;-47
2022/10/16 07:45:51;;;;;;;5.50;2.05;;;;;;;12.22;100.00;100890.50;4997870;28;20200;-48
2022/10/16 07:48:17;;;;;;;3.97;1.70;;;;;;;12.19;100.00;100900.53;5001951;28;20177;-48
2022/10/16 07:50:44;;;;;;;4.82;2.05;;;;;;;12.26;100.00;100892.13;5002292;28;20217;-49
2022/10/16 07:53:10;;;;;;;4.30;2.10;;;;;;;12.54;100.00;100891.75;4997151;28;20212;-48
2022/10/16 07:55:36;;;;;;;5.25;2.17;;;;;;;12.71;100.00;100903.56;4997400;28;20588;-48
2022/10/16 07:58:01;;;;;;;2.72;1.90;;;;;;;12.92;100.00;100882.88;4990771;28;20197;-49
2022/10/16 08:00:27;;;;;;;3.50;1.88;;;;;;;12.96;100.00;100898.78;4996715;28;20185;-47
2022/10/16 08:02:52;;;;;;;6.72;1.83;;;;;;;13.10;100.00;100878.44;4998926;28;20201;-49
2022/10/16 08:05:18;;;;;;;6.78;1.90;;;;;;;13.31;100.00;100882.81;4997736;28;20177;-49
2022/10/16 08:07:48;;;;;;;6.40;2.85;;;;;;;13.24;100.00;100875.09;4999313;28;20199;-49
2022/10/16 08:12:47;;;;;;;3.88;2.03;;;;;;;13.46;100.00;100893.78;4953220;28;20222;-47
2022/10/16 08:15:12;;;;;;;6.00;2.47;;;;;;;13.57;100.00;100891.41;5780178;22;20204;-48
2022/10/16 08:17:38;;;;;;;4.82;2.08;;;;;;;13.77;100.00;100895.81;4988417;28;20561;-44
2022/10/16 08:20:05;;;;;;;4.20;1.92;;;;;;;13.94;100.00;100903.91;5008761;28;20177;-46
2022/10/16 08:22:30;;;;;;;5.53;2.20;;;;;;;14.20;100.00;100899.00;5008270;28;20204;-44
2022/10/16 08:24:55;;;;;;;5.07;2.40;;;;;;;14.27;99.16;100895.00;4994582;28;20193;-47
2022/10/16 08:27:21;;;;;;;4.72;1.88;;;;;;;14.14;98.76;100893.91;4990588;28;20193;-45
2022/10/16 08:29:48;;;;;;;4.38;1.98;;;;;;;14.37;98.39;100898.97;4994233;28;20556;-44
2022/10/16 08:32:14;;;;;;;5.55;2.35;;;;;;;14.45;97.91;100898.56;4991189;28;20193;-46
2022/10/16 08:34:40;;;;;;;4.53;2.08;;;;;;;14.50;97.58;100893.81;4990981;28;20192;-47
2022/10/16 08:37:07;;;;;;;6.03;2.78;;;;;;;14.46;97.18;100903.00;4995667;28;20217;-45
2022/10/16 08:39:32;;;;;;;3.45;2.33;;;;;;;14.54;96.83;100902.59;4995112;28;20304;-45
2022/10/16 08:42:35;;;;;;;6.22;2.60;;;;;;;14.76;96.82;100903.22;4996126;28;20200;-46
2022/10/16 08:45:06;;;;;;;5.85;2.58;;;;;;;14.49;96.58;100921.72;4990113;28;20227;-45
2022/10/16 08:47:34;;;;;;;6.45;2.75;;;;;;;14.77;96.64;100917.56;4993260;28;20189;-43
2022/10/16 08:50:13;;;;;;;7.57;2.90;;;;;;;14.63;96.08;100923.72;4997153;28;20188;-46
2022/10/16 08:52:43;;;;;;;3.85;2.60;;;;;;;14.76;95.81;100929.31;5007810;28;20587;-51
2022/10/16 08:55:37;;;;;;;9.52;3.15;;;;;;;14.76;95.72;100935.59;5006434;28;20243;-45
2022/10/16 08:58:11;;;;;;;6.38;2.85;;;;;;;14.75;95.50;100925.72;5006142;28;20303;-45
2022/10/16 09:00:38;;;;;;;8.00;3.20;;;;;;;14.76;95.50;100929.31;4994242;28;20188;-46
2022/10/16 09:03:35;;;;;;;6.45;3.25;;;;;;;14.90;95.72;100931.25;4992648;28;20217;-45
2022/10/16 09:06:25;;;;;;;4.75;3.00;;;;;;;14.97;95.31;100930.81;4994595;28;20184;-47
2022/10/16 09:09:33;;;;;;;4.97;3.30;;;;;;;14.97;95.10;100944.31;4989449;28;20185;-44
2022/10/16 09:12:11;;;;;;;6.65;3.25;;;;;;;15.21;95.15;100936.69;4989149;28;20594;-44
2022/10/16 09:15:03;;;;;;;6.60;3.03;;;;;;;15.16;94.87;100938.78;4992800;28;20209;-43
2022/10/16 09:17:34;;;;;;;6.60;2.55;;;;;;;15.38;94.55;100929.50;4990999;28;20189;-45
2022/10/16 09:20:44;;;;;;;7.18;3.35;;;;;;;15.60;94.10;100938.09;4992961;28;20189;-46
2022/10/16 09:23:18;;;;;;;8.23;2.97;;;;;;;15.47;93.51;100925.41;4947301;28;20253;-46
2022/10/16 09:25:47;;;;;;;5.03;2.80;;;;;;;15.56;93.20;100930.25;4989438;28;20200;-43
2022/10/16 09:28:13;;;;;;;10.07;3.08;;;;;;;15.43;93.00;100925.53;4996157;28;20190;-44
2022/10/16 09:30:41;;;;;;;8.65;2.50;;;;;;;15.58;92.60;100949.94;4992774;28;20177;-46
2022/10/16 09:33:10;;;;;;;5.82;2.15;;;;;;;15.68;92.29;100944.88;4994507;28;20220;-44
2022/10/16 09:35:39;;;;;;;6.38;2.40;;;;;;;15.85;91.92;100948.41;4992643;28;20631;-43
2022/10/16 09:38:05;;;;;;;8.10;2.47;;;;;;;15.67;91.18;100971.03;4991746;28;20692;-44
2022/10/16 09:40:37;;;;;;;5.07;2.00;;;;;;;15.81;90.48;100962.19;4990647;28;20265;-45
2022/10/16 09:43:19;;;;;;;5.72;2.47;;;;;;;15.92;90.45;100961.53;4993261;28;20247;-47
2022/10/16 09:45:56;;;;;;;7.47;2.65;;;;;;;15.77;89.90;100961.47;4990833;28;20652;-44
2022/10/16 09:48:22;;;;;;;6.25;2.50;;;;;;;15.90;89.35;100975.16;4993174;28;20277;-45
2022/10/16 09:51:03;;;;;;;9.68;2.40;;;;;;;15.49;89.72;100977.47;4990860;28;20192;-45
2022/10/16 09:53:46;;;;;;;10.82;2.83;;;;;;;15.61;89.75;100982.16;4991050;28;20589;-44
2022/10/16 09:56:22;;;;;;;5.00;2.20;;;;;;;15.54;88.99;100981.66;4994995;28;20204;-45
2022/10/16 09:58:59;;;;;;;6.90;2.10;;;;;;;15.35;89.57;100976.44;4992332;28;20612;-44
2022/10/16 10:01:38;;;;;;;11.05;2.58;;;;;;;15.23;89.85;100986.06;5068636;22;20235;-43
2022/10/16 10:04:04;;;;;;;7.70;2.17;;;;;;;15.37;89.79;100976.31;5049623;28;20191;-44
2022/10/16 10:06:34;;;;;;;7.28;2.03;;;;;;;15.39;89.93;100988.81;5049492;28;20341;-44
2022/10/16 10:09:04;;;;;;;7.90;2.10;;;;;;;15.30;90.57;100991.13;5010450;28;20644;-43
2022/10/16 10:11:41;;;;;;;8.88;2.67;;;;;;;15.28;90.65;100993.03;5049407;28;20634;-45
2022/10/16 10:14:17;;;;;;;9.20;2.15;;;;;;;15.05;90.87;101003.28;5049604;28;20659;-45
2022/10/16 10:16:42;;;;;;;8.35;2.17;;;;;;;15.33;90.96;101008.03;5029503;28;20175;-44
2022/10/16 10:19:17;;;;;;;5.93;2.58;;;;;;;15.41;90.61;101018.41;5034791;28;20184;-49
2022/10/16 10:21:43;;;;;;;7.95;2.40;;;;;;;15.34;90.44;101011.59;5046355;28;20182;-47
2022/10/16 10:24:11;;;;;;;3.58;2.13;;;;;;;15.36;90.39;101005.16;5047224;28;20206;-48
2022/10/16 10:26:38;;;;;;;6.63;2.30;;;;;;;15.42;90.01;101002.13;5048175;28;20187;-47
2022/10/16 10:29:38;;;;;;;9.73;2.53;;;;;;;15.20;90.67;101021.34;5048069;28;20282;-49
2022/10/16 10:32:06;;;;;;;4.97;2.08;;;;;;;15.28;90.88;101029.00;5047365;28;20245;-48
2022/10/16 10:35:02;;;;;;;4.57;2.17;;;;;;;15.66;90.58;101029.59;5030770;28;20211;-51
2022/10/16 10:37:30;;;;;;;8.52;2.53;;;;;;;15.81;89.87;101029.72;5047938;28;20190;-47
2022/10/16 10:40:16;;;;;;;6.43;2.00;;;;;;;15.62;89.65;101036.13;5018211;28;20662;-48
2022/10/16 10:42:57;;;;;;;6.28;2.10;;;;;;;15.61;89.36;101041.59;5029226;28;20595;-48
2022/10/16 10:45:27;;;;;;;6.75;2.22;;;;;;;15.31;89.69;101038.78;5030214;28;20845;-49
2022/10/16 10:48:10;;;;;;;8.10;2.20;;;;;;;15.74;89.57;101037.31;5047032;28;20192;-51
2022/10/16 10:50:45;;;;;;;5.43;1.77;;;;;;;16.09;88.44;101042.50;5030412;28;20675;-49
2022/10/16 10:53:20;;;;;;;7.65;2.40;;;;;;;15.91;87.33;101041.72;5050594;28;20217;-47
2022/10/16 10:55:56;;;;;;;11.82;1.95;;;;;;;16.32;86.28;101027.63;5051340;28;20183;-48
2022/10/16 10:58:40;;;;;;;6.35;1.85;;;;;;;16.28;85.28;101026.06;5051502;28;20195;-48
2022/10/16 11:01:13;;;;;;;7.72;2.03;;;;;;;16.19;85.28;101030.19;5051361;28;20312;-50
2022/10/16 11:03:57;;;;;;;5.50;2.13;;;;;;;16.18;85.41;101033.88;5050882;28;20207;-47
2022/10/16 11:06:29;;;;;;;5.53;2.17;;;;;;;16.35;85.40;101043.66;5050874;28;20191;-50
2022/10/16 11:09:21;;;;;;;6.28;1.75;;;;;;;16.40;84.63;101040.72;5050572;28;20198;-48
2022/10/16 11:12:02;;;;;;;7.97;2.28;;;;;;;16.39;83.61;101037.13;5025780;28;20194;-49
2022/10/16 11:14:36;;;;;;;5.88;1.75;;;;;;;16.20;82.97;101061.69;5050057;28;20393;-47
2022/10/16 11:17:13;;;;;;;7.60;2.22;;;;;;;16.14;83.19;101062.03;5050946;28;20187;-46
2022/10/16 11:19:56;;;;;;;8.20;1.90;;;;;;;16.13;83.38;101076.50;5049815;28;20641;-49
2022/10/16 11:22:37;;;;;;;6.30;1.70;;;;;;;16.14;82.70;101062.03;5049531;28;20750;-50
2022/10/16 11:25:13;;;;;;;9.00;1.92;;;;;;;16.06;82.94;101065.16;5032479;28;20568;-50
2022/10/16 11:28:05;;;;;;;6.50;2.30;;;;;;;15.87;83.90;101072.56;5048887;28;20183;-47
2022/10/16 11:30:38;;;;;;;8.20;1.90;;;;;;;15.85;84.39;101085.28;5050052;28;20233;-47
2022/10/16 11:33:21;;;;;;;7.07;1.70;;;;;;;15.72;84.79;101087.84;5048022;28;20716;-46